x

Muskegon, Mi (mkgm4) Weather Station

8:30am - Thu 28th Aug 2014 All times are CDT. -5 hours from GMT.

  • Wind
    6mph, 9mph gusts
  • Air Temp 60°f
  • Sea Pressure 1022.4mb
  • Muskegon, Mi
  • Muskegon, Mi

More Historic Weather Station data

Upgrade to MSW Pro to gain access to the past 30 days of data for over 8000 Wavebouys and Weather Stations around the globe.

Join Pro

Comparision Forecast

View Surf forecast
   
Thu 08/28 8:30am 6 9 mph 1022.4mb 60f
8:15am 9 11 mph 1022.3mb 60f
8:00am 7 10 mph 1022.2mb 59f
7:45am 7 11 mph 1022.2mb 59f
7:30am 7 10 mph 1022.3mb 58f
7:15am 8 14 mph 1022.3mb 58f
7:00am 9 13 mph 1022.2mb 57f
6:45am 8 15 mph 1022.2mb 57f
6:30am 8 11 mph 1022.2mb 57f
6:15am 8 11 mph 1022.1mb 57f
6:00am 9 14 mph 1022mb 57f
5:45am 8 11 mph 1022mb 57f
5:30am 7 9 mph 1022mb 57f
5:15am 7 10 mph 1021.9mb 58f
5:00am 8 13 mph 1021.9mb 58f
4:45am 8 10 mph 1021.9mb 58f
4:30am 10 14 mph 1022mb 58f
4:15am 10 13 mph 1021.8mb 58f
4:00am 9 13 mph 1021.8mb 58f
3:45am 9 13 mph 1021.8mb 59f
3:30am 10 15 mph 1021.9mb 59f
3:15am 13 15 mph 1021.7mb 60f
3:00am 8 15 mph 1021.8mb 59f
2:45am 9 11 mph 1021.7mb 59f
2:30am 11 16 mph 1021.6mb 60f
2:15am 7 13 mph 1021.6mb 60f
2:00am 7 13 mph 1021.6mb 60f
1:45am 9 14 mph 1021.5mb 61f
1:30am 8 11 mph 1021.5mb 61f
1:15am 7 11 mph 1021.5mb 61f
1:00am 8 13 mph 1021.5mb 62f
12:45am 6 10 mph 1021.5mb 61f
12:30am 7 10 mph 1021.4mb 61f
12:15am 7 13 mph 1021.4mb 61f
12:00am 6 7 mph 1021.4mb 61f
Wed 08/27 11:45pm 6 8 mph 1021.3mb 61f
11:30pm 6 9 mph 1021.4mb 61f
11:15pm 6 9 mph 1021.3mb 62f
11:00pm 7 9 mph 1021.3mb 62f
10:45pm 9 13 mph 1021.1mb 62f
10:30pm 7 10 mph 1021.2mb 62f
10:15pm 9 11 mph 1021mb 63f
10:00pm 9 11 mph 1021mb 63f
9:45pm 9 11 mph 1020.8mb 63f
9:30pm 9 10 mph 1020.7mb 64f
9:15pm 8 10 mph 1020.6mb 64f
9:00pm 9 10 mph 1020.5mb 65f
8:45pm 8 10 mph 1020.3mb 65f
8:30pm 7 9 mph 1020.3mb 66f
8:15pm 7 9 mph 1020.2mb 66f
8:00pm 9 11 mph 1020mb 66f
7:45pm 8 9 mph 1020.1mb 67f
7:30pm 5
mph
1020.2mb 68f
7:15pm 3 5 mph 1020.1mb 68f
7:00pm 3 6 mph 1020.2mb 69f
6:45pm 6
mph
1020.3mb 70f
6:30pm 6 8 mph 1020.2mb 71f
6:15pm 8 10 mph 1020.3mb 71f
6:00pm 8 10 mph 1020.4mb 71f
5:45pm 9 11 mph 1020.4mb 72f
5:30pm 9 13 mph 1020.6mb 72f
5:15pm 10 14 mph 1020.7mb 71f
5:00pm 16 20 mph 1020.7mb 71f
4:45pm 17 22 mph 1020.7mb 72f
4:30pm 18 22 mph 1020.8mb 71f
4:15pm 17 21 mph 1020.7mb 71f
4:00pm 17 22 mph 1020.9mb 71f
3:45pm 18 20 mph 1020.9mb 71f
3:30pm 16 20 mph 1020.8mb 71f
3:15pm 16 18 mph 1021mb 71f
3:00pm 16 17 mph 1020.9mb 71f
2:45pm 16 17 mph 1020.9mb 70f
2:30pm 15 16 mph 1021.1mb 70f
2:15pm 15 17 mph 1021mb 70f
2:00pm 15 17 mph 1021.1mb 70f
1:45pm 13 15 mph 1021.2mb 71f
1:30pm 14 16 mph 1021.2mb 70f
1:15pm 13 15 mph 1021.2mb 70f
1:00pm 14 15 mph 1021.3mb 71f
12:45pm 13 15 mph 1021.4mb 71f
12:30pm 13 14 mph 1021.3mb 71f
12:15pm 10 11 mph 1021.5mb 70f
12:00pm 10 11 mph 1021.4mb 70f
11:45am 10
mph
1021.5mb 70f
11:30am 9 10 mph 1021.5mb 69f
11:15am 7 8 mph 1021.4mb 69f
11:00am 6 7 mph 1021.1mb 74f
10:45am 2 6 mph 1021.2mb 72f
10:30am 2 6 mph 1021.4mb 71f
10:15am 5 7 mph 1021.5mb 71f
10:00am 3 5 mph 1021.8mb 71f
9:45am 5 7 mph 1021.6mb 69f
9:30am 5 7 mph 1021mb 69f
9:15am 5 8 mph 1021.1mb 68f
9:00am 6 8 mph 1021.3mb 67f
8:45am 7 11 mph 1021.3mb 66f
8:30am 7 11 mph 1021.4mb 66f
8:15am 7 10 mph 1021.1mb 65f
8:00am 8 10 mph 1021.3mb 64f
7:45am 8 10 mph 1021.3mb 64f
7:30am 6 8 mph 1021.8mb 62f
7:15am 6 7 mph 1021.7mb 62f
7:00am 7 9 mph 1021.6mb 62f
6:45am 6 8 mph 1021.3mb 62f
6:30am 8 9 mph 1021.1mb 62f
6:15am 6 7 mph 1020.7mb 62f
6:00am 5 7 mph 1020.6mb 62f
5:45am 3 6 mph 1020.7mb 62f
5:30am 5 6 mph 1020.7mb 62f
5:15am 3 5 mph 1020.7mb 62f
5:00am 3
mph
1020.6mb 62f
4:45am 3
mph
1020.5mb 62f
4:30am 1
mph
1020.6mb 62f
4:15am 3 5 mph 1020.1mb 63f
4:00am 5 6 mph 1020.1mb 63f
3:45am 3 5 mph 1020mb 63f
3:30am 5
mph
1020.2mb 63f
3:15am 5 6 mph 1020.2mb 62f
3:00am 3
mph
1020.2mb 63f
2:45am 5 6 mph 1020.2mb 63f
2:30am 6 8 mph 1020.1mb 62f
2:15am 5 6 mph 1020.2mb 62f
2:00am 5 6 mph 1020.2mb 63f
1:45am 6 8 mph 1020.1mb 64f
1:30am 5 7 mph 1020.3mb 63f
1:15am 7 8 mph 1020.3mb 63f
1:00am 6 8 mph 1020.1mb 63f
12:45am 7 8 mph 1019.9mb 64f
12:30am 7 8 mph 1019.8mb 65f
12:15am 7 9 mph 1019.8mb 65f
12:00am 6 7 mph 1019.8mb 65f
Tue 08/26 11:45pm 5 6 mph 1019.8mb 65f
11:30pm 7 8 mph 1019.5mb 65f
11:15pm 6 8 mph 1019.5mb 66f
11:00pm 6 8 mph 1019.5mb 65f
10:45pm 7 8 mph 1019.4mb 66f
10:30pm 9
mph
1019.3mb 66f
10:15pm 8 9 mph 1019.3mb 65f
10:00pm 8 9 mph 1019.2mb 66f
9:45pm 7 8 mph 1019.1mb 66f
9:30pm 5 7 mph 1019.1mb 65f
9:15pm 6 7 mph 1019.2mb 65f
9:00pm 6 7 mph 1019.2mb 65f
8:45pm 5
mph
1019.2mb 66f
8:30pm 5
mph
1019mb 66f
8:15pm 5 6 mph 1019mb 67f
8:00pm 5 6 mph 1018.8mb 67f
7:45pm 5
mph
1018.5mb 68f
7:30pm 6 7 mph 1018.5mb 69f
7:15pm 6 8 mph 1018.4mb 70f
7:00pm 8 10 mph 1018.3mb 71f
6:45pm 8 10 mph 1018.5mb 71f
6:30pm 6 7 mph 1018.6mb 70f
6:15pm 9 10 mph 1018.8mb 70f
6:00pm 9 10 mph 1018.8mb 70f
5:45pm 9 11 mph 1018.7mb 71f
5:30pm 10 11 mph 1018.6mb 71f
5:15pm 13 14 mph 1018.7mb 71f
5:00pm 11 13 mph 1018.9mb 71f
4:45pm 11 13 mph 1019mb 71f
4:30pm 14 15 mph 1018.8mb 71f
4:15pm 16 18 mph 1018.9mb 71f
4:00pm 15 17 mph 1018.6mb 71f
3:45pm 13 14 mph 1018.7mb 71f
3:30pm 10 11 mph 1018.4mb 71f
3:15pm 9 10 mph 1018.2mb 70f
3:00pm 10 11 mph 1018.1mb 69f
2:45pm 9 11 mph 1018mb 69f
2:30pm 3 5 mph 1017.3mb 70f
2:15pm 5 7 mph 1017mb 69f
2:00pm 1 3 mph 1017.5mb 68f
1:45pm 1 3 mph 1017.8mb 67f
1:30pm 2 3 mph 1018.2mb 67f
1:15pm 3 5 mph 1019.1mb 67f
1:00pm 7 8 mph 1019.6mb 68f
12:45pm 7 8 mph 1019.8mb 68f
12:30pm 13 15 mph 1019.9mb 68f
12:15pm 15 17 mph 1020.2mb 68f
12:00pm 21 24 mph 1019.7mb 69f
11:45am 18 22 mph 1019.4mb 70f
11:30am 16 18 mph 1019.1mb 71f
11:15am 14 16 mph 1018.7mb 72f
11:00am 14 15 mph 1019.1mb 71f
10:45am 11 14 mph 1019.2mb 71f
10:30am 7 9 mph 1019mb 70f
10:15am 6 7 mph 1018.8mb 70f
10:00am 3 5 mph 1018.7mb 69f
9:45am 7 8 mph 1019mb 70f
9:30am 7 8 mph 1018.7mb 70f
9:15am 8 9 mph 1018.6mb 70f
9:00am 10 11 mph 1018.3mb 70f
8:45am 9
mph
1018.1mb 70f
8:30am 9 10 mph 1018mb 70f
8:15am 9
mph
1018.1mb 70f
8:00am 10 13 mph 1018mb 70f
7:45am 11 13 mph - 70f
7:30am 11 13 mph - 71f
7:15am 10 11 mph - 70f
7:00am 9 10 mph - 71f
6:45am 9 10 mph - 71f
6:30am 9 10 mph - 71f
6:15am 9 11 mph - 71f
6:00am 10 11 mph - 71f
5:45am 9 10 mph - 71f
5:30am 9 11 mph - 71f
5:15am 10 13 mph - 71f
5:00am 9 10 mph - 71f
4:45am 11 13 mph - 71f
4:30am 9 11 mph - 71f
4:15am 11 13 mph - 71f
4:00am 11 13 mph - 70f
3:45am 11 13 mph - 70f
3:30am 13 14 mph - 70f
3:15am 11
mph
- 70f
3:00am 7 9 mph - 70f
2:45am 6 7 mph - 70f
2:30am 7 8 mph - 70f
2:15am 9 10 mph - 70f
2:00am 10 11 mph - 70f
1:45am 10 11 mph - 70f
1:30am 13 14 mph - 71f
1:15am 11 13 mph - 71f
1:00am 10 11 mph - 71f
12:45am 9 10 mph - 71f
12:30am 8 9 mph - 71f
12:15am 8 9 mph - 71f
12:00am 9 10 mph - 71f
Mon 08/25 11:45pm 10 11 mph - 71f
11:30pm 10 11 mph - 71f
11:15pm 11 13 mph - 71f
11:00pm 11 13 mph - 71f
10:45pm 13 14 mph - 71f
10:30pm 13
mph
- 71f
10:15pm 10 11 mph - 71f
10:00pm 9 10 mph - 71f
9:45pm 9
mph
- 72f
9:30pm 8 10 mph - 72f
9:15pm 9 10 mph - 72f
9:00pm 10 11 mph - 72f
8:45pm 6 7 mph - 73f
8:30pm 5 7 mph - 72f
8:15pm 8 9 mph - 72f
8:00pm 6 7 mph - 71f
7:45pm 5 7 mph - 71f
7:30pm 6 7 mph - 70f
7:15pm 5 6 mph - 70f
7:00pm 6 7 mph - 70f
6:45pm 10 14 mph - 71f
6:30pm 10 11 mph - 74f
6:15pm 8 11 mph - 74f
6:00pm 9
mph
- 74f
5:45pm 6 7 mph - 76f
5:30pm 3 5 mph - 76f
5:15pm 2 3 mph - 77f
5:00pm 5 6 mph - 78f
4:45pm 8 9 mph - 76f
4:30pm 8 10 mph - 76f
4:15pm 6 8 mph - 76f
4:00pm 3 6 mph - 76f
3:45pm 6 8 mph - 75f
3:30pm 8 11 mph - 74f
3:15pm 6 9 mph - 73f
3:00pm 7 8 mph - 72f
2:45pm 8 9 mph - 71f
2:30pm 7 9 mph - 72f
2:15pm 10 14 mph - 71f
2:00pm 9 11 mph - 72f
12:45pm 14 16 mph - 73f
12:30pm 13 15 mph - 73f
12:15pm 11 15 mph - 73f
12:00pm 14 15 mph - 73f
11:45am 6 8 mph - 72f
11:30am 3 5 mph - 72f
11:15am 3 8 mph - 71f
11:00am 23 26 mph - 72f
10:45am 11 14 mph - 72f
10:30am 14 15 mph - 73f
10:15am 11 14 mph - 74f
10:00am 10 13 mph - 74f
9:45am 13 15 mph - 74f
9:30am 13 14 mph - 74f
9:15am 15 17 mph - 75f
9:00am 15 18 mph - 76f
8:45am 13 16 mph - 76f
8:30am 13 15 mph - 75f
8:15am 11 14 mph - 74f
8:00am 10 13 mph - 74f
7:45am 10 15 mph - 74f
7:30am 10 14 mph - 73f
7:15am 8 11 mph - 73f
7:00am 6 11 mph - 72f
6:45am 7 9 mph - 71f
6:30am 6 9 mph - 71f
6:15am 6 8 mph - 71f
6:00am 6 9 mph - 71f
5:45am 7 9 mph - 71f
5:30am 7 10 mph - 71f
5:15am 8 10 mph - 72f
5:00am 6 9 mph - 72f
4:45am 6 8 mph - 72f
4:30am 6 8 mph - 72f
4:15am 6 9 mph - 73f
4:00am 3 7 mph - 73f
3:45am 6 9 mph - 73f
3:30am 6 10 mph - 73f
3:15am 8 10 mph - 73f
3:00am 9 13 mph - 73f
2:45am 9 15 mph - 73f
2:30am 9 15 mph - 73f
2:15am 9 13 mph - 73f
2:00am 9 15 mph - 73f
1:45am 10 15 mph - 73f
1:30am 10 15 mph - 73f
1:15am 10 15 mph - 73f
1:00am 10 15 mph - 73f
12:45am 11 16 mph - 73f
12:30am 9 13 mph - 73f
12:15am 11 16 mph - 73f
12:00am 13 18 mph - 73f
Sun 08/24 11:45pm 11 16 mph - 73f
11:30pm 10 15 mph - 73f
11:15pm 11 17 mph - 73f
11:00pm 10 17 mph - 73f
10:45pm 13 17 mph - 73f
10:30pm 11 15 mph - 74f
10:15pm 11 15 mph - 74f
10:00pm 10 16 mph - 74f
9:45pm 13 17 mph - 75f
9:30pm 11 17 mph - 75f
9:15pm 10 16 mph - 76f
9:00pm 11 15 mph - 76f
8:45pm 10 14 mph - 76f
8:30pm 10 15 mph - 77f
8:15pm 10 15 mph - 77f
8:00pm 9 13 mph - 77f
7:45pm 8 14 mph - 78f
7:30pm 10 16 mph - 78f
7:15pm 9 14 mph - 79f
7:00pm 8 11 mph - 80f
6:45pm 9 14 mph - 80f
6:30pm 9 13 mph - 81f
6:15pm 9 13 mph - 81f
6:00pm 7 11 mph - 81f
5:45pm 6 10 mph - 82f
5:30pm 7 13 mph - 82f
5:15pm 8 11 mph - 82f
5:00pm 8 13 mph - 82f
4:45pm 8 13 mph - 82f
4:30pm 9 13 mph - 81f
4:15pm 8 14 mph - 82f
4:00pm 7 11 mph - 82f
3:45pm 8 11 mph - 83f
3:30pm 10 15 mph - 82f
3:15pm 8 13 mph - 82f
3:00pm 10 16 mph - 81f
2:45pm 9 17 mph - 81f
2:30pm 9 13 mph - 81f